createdAt,value
2023-03-12T00:00:11.748Z,85.21
2023-03-12T00:02:41.207Z,85.40
2023-03-12T00:05:09.511Z,85.21
2023-03-12T00:07:38.753Z,84.34
2023-03-12T00:10:09.717Z,84.66
2023-03-12T00:12:37.823Z,84.51
2023-03-12T00:15:06.468Z,84.54
2023-03-12T00:17:34.234Z,84.41
2023-03-12T00:20:01.841Z,84.99
2023-03-12T00:22:29.546Z,85.17
2023-03-12T00:24:58.239Z,85.45
2023-03-12T00:27:28.604Z,86.21
2023-03-12T00:29:56.361Z,85.20
2023-03-12T00:32:24.698Z,85.58
2023-03-12T00:34:52.544Z,85.73
2023-03-12T00:37:20.305Z,85.46
2023-03-12T00:39:47.993Z,86.42
2023-03-12T00:42:15.993Z,86.47
2023-03-12T00:44:45.442Z,86.68
2023-03-12T00:47:13.972Z,86.01
2023-03-12T00:49:41.761Z,86.64
2023-03-12T00:52:09.570Z,87.43
2023-03-12T00:54:37.531Z,86.06
2023-03-12T00:57:05.677Z,86.36
2023-03-12T00:59:33.640Z,86.64
2023-03-12T01:02:02.660Z,86.69
2023-03-12T01:04:30.371Z,86.14
2023-03-12T01:06:58.192Z,86.75
2023-03-12T01:09:25.959Z,86.87
2023-03-12T01:11:55.687Z,86.27
2023-03-12T01:14:24.182Z,85.75
2023-03-12T01:16:53.849Z,85.89
2023-03-12T01:19:22.944Z,85.73
2023-03-12T01:21:50.605Z,86.31
2023-03-12T01:24:18.271Z,87.22
2023-03-12T01:26:45.951Z,88.08
2023-03-12T01:29:13.647Z,89.25
2023-03-12T01:31:41.386Z,89.93
2023-03-12T01:34:12.365Z,89.26
2023-03-12T01:36:41.769Z,90.03
2023-03-12T01:39:09.502Z,89.58
2023-03-12T01:41:37.384Z,90.27
2023-03-12T01:44:05.661Z,90.53
2023-03-12T01:46:34.967Z,90.05
2023-03-12T01:49:08.793Z,88.46
2023-03-12T01:51:41.048Z,88.41
2023-03-12T01:54:14.122Z,88.93
2023-03-12T01:56:42.893Z,89.59
2023-03-12T01:59:18.848Z,88.70
2023-03-12T02:01:47.243Z,89.69
2023-03-12T02:04:17.083Z,88.89
2023-03-12T02:06:50.099Z,90.04
2023-03-12T02:09:21.456Z,90.23
2023-03-12T02:11:49.193Z,89.21
2023-03-12T02:14:17.562Z,89.44
2023-03-12T02:16:46.200Z,89.58
2023-03-12T02:19:19.787Z,89.78
2023-03-12T02:21:47.454Z,89.78
2023-03-12T02:24:23.785Z,89.42
2023-03-12T02:26:52.910Z,89.07
2023-03-12T02:29:20.984Z,89.88
2023-03-12T02:31:54.509Z,90.76
2023-03-12T02:34:22.311Z,90.32
2023-03-12T02:36:50.606Z,89.95
2023-03-12T02:39:19.673Z,90.52
2023-03-12T02:41:53.596Z,89.54
2023-03-12T02:44:25.282Z,89.96
2023-03-12T02:46:55.493Z,89.61
2023-03-12T02:49:25.947Z,90.08
2023-03-12T02:51:54.143Z,90.28
2023-03-12T02:54:22.800Z,90.83
2023-03-12T02:56:51.091Z,90.67
2023-03-12T02:59:20.697Z,90.46
2023-03-12T03:01:54.465Z,91.15
2023-03-12T03:04:22.375Z,90.40
2023-03-12T03:06:50.529Z,90.94
2023-03-12T03:09:19.256Z,90.48
2023-03-12T03:11:47.016Z,90.35
2023-03-12T03:14:14.657Z,90.78
2023-03-12T03:16:42.289Z,90.47
2023-03-12T03:19:11.358Z,93.45
2023-03-12T03:21:39.418Z,94.57
2023-03-12T03:24:07.555Z,95.45
2023-03-12T03:26:35.243Z,95.67
2023-03-12T03:29:02.968Z,96.34
2023-03-12T03:31:31.745Z,95.87
2023-03-12T03:33:59.641Z,96.81
2023-03-12T03:36:28.703Z,97.52
2023-03-12T03:38:56.388Z,97.33
2023-03-12T03:41:24.476Z,97.57
2023-03-12T03:43:52.116Z,97.96
2023-03-12T03:46:19.794Z,97.81
2023-03-12T03:48:47.651Z,97.49
2023-03-12T03:51:15.525Z,97.27
2023-03-12T03:53:44.623Z,97.94
2023-03-12T03:56:14.667Z,97.73
2023-03-12T03:58:42.837Z,97.99
2023-03-12T04:01:10.958Z,97.31
2023-03-12T04:03:38.615Z,97.73
2023-03-12T04:06:08.182Z,97.33
2023-03-12T04:08:37.465Z,97.61
2023-03-12T04:11:10.268Z,96.86
2023-03-12T04:13:38.075Z,96.96
2023-03-12T04:16:06.433Z,96.61
2023-03-12T04:18:35.984Z,96.61
2023-03-12T04:21:03.800Z,96.52
2023-03-12T04:23:31.487Z,96.86
2023-03-12T04:25:59.563Z,97.10
2023-03-12T04:28:28.616Z,97.18
2023-03-12T04:30:56.845Z,98.40
2023-03-12T04:33:24.524Z,99.10
2023-03-12T04:35:52.857Z,99.37
2023-03-12T04:38:21.334Z,99.04
2023-03-12T04:40:57.815Z,98.65
2023-03-12T04:43:25.530Z,99.69
2023-03-12T04:45:54.544Z,100.00
2023-03-12T04:48:22.221Z,100.00
2023-03-12T04:50:50.502Z,100.00
2023-03-12T04:53:18.415Z,100.00
2023-03-12T04:55:46.162Z,100.00
2023-03-12T04:58:13.946Z,100.00
2023-03-12T05:00:42.143Z,100.00
2023-03-12T05:03:11.159Z,100.00
2023-03-12T05:05:38.840Z,100.00
2023-03-12T05:08:07.004Z,100.00
2023-03-12T05:10:35.107Z,100.00
2023-03-12T05:13:02.737Z,100.00
2023-03-12T05:15:30.490Z,100.00
2023-03-12T05:17:58.163Z,100.00
2023-03-12T05:20:27.097Z,100.00
2023-03-12T05:22:54.736Z,100.00
2023-03-12T05:25:22.372Z,100.00
2023-03-12T05:27:50.067Z,100.00
2023-03-12T05:30:18.315Z,100.00
2023-03-12T05:32:46.532Z,99.46
2023-03-12T05:35:14.498Z,99.67
2023-03-12T05:37:43.434Z,99.08
2023-03-12T05:40:12.600Z,98.07
2023-03-12T05:42:40.337Z,99.66
2023-03-12T05:45:09.248Z,98.16
2023-03-12T05:47:36.993Z,98.95
2023-03-12T05:50:05.380Z,99.29
2023-03-12T05:52:33.041Z,98.12
2023-03-12T05:55:02.145Z,97.46
2023-03-12T05:57:30.407Z,98.11
2023-03-12T05:59:57.998Z,98.26
2023-03-12T06:02:25.724Z,97.77
2023-03-12T06:04:53.454Z,97.79
2023-03-12T06:07:21.158Z,97.83
2023-03-12T06:09:48.823Z,97.65
2023-03-12T06:12:17.730Z,97.52
2023-03-12T06:14:45.512Z,97.66
2023-03-12T06:17:13.338Z,97.11
2023-03-12T06:19:40.954Z,98.10
2023-03-12T06:22:08.613Z,97.41
2023-03-12T06:24:36.243Z,96.33
2023-03-12T06:27:04.093Z,96.69
2023-03-12T06:29:33.117Z,97.84
2023-03-12T06:32:00.798Z,97.77
2023-03-12T06:34:28.446Z,94.94
2023-03-12T06:36:56.162Z,94.92
2023-03-12T06:39:23.875Z,94.92
2023-03-12T06:41:52.563Z,95.74
2023-03-12T06:44:20.256Z,97.07
2023-03-12T06:46:49.365Z,96.58
2023-03-12T06:49:16.965Z,96.11
2023-03-12T06:51:44.592Z,95.85
2023-03-12T06:54:12.299Z,94.18
2023-03-12T06:56:40.122Z,94.54
2023-03-12T06:59:08.073Z,94.38
2023-03-12T07:01:35.865Z,93.42
2023-03-12T07:04:04.938Z,94.03
2023-03-12T07:06:32.743Z,92.00
2023-03-12T07:09:00.481Z,92.40
2023-03-12T07:11:28.112Z,92.48
2023-03-12T07:13:55.886Z,91.71
2023-03-12T07:16:23.588Z,91.97
2023-03-12T07:18:51.230Z,90.27
2023-03-12T07:21:22.729Z,90.47
2023-03-12T07:23:50.782Z,89.48
2023-03-12T07:26:19.243Z,88.83
2023-03-12T07:28:47.305Z,88.12
2023-03-12T07:31:14.951Z,87.84
2023-03-12T07:33:42.695Z,89.03
2023-03-12T07:36:10.573Z,88.38
2023-03-12T07:38:39.683Z,86.80
2023-03-12T07:41:07.752Z,86.97
2023-03-12T07:43:35.540Z,86.49
2023-03-12T07:46:03.577Z,87.67
2023-03-12T07:48:31.235Z,86.57
2023-03-12T07:50:59.117Z,87.20
2023-03-12T07:53:26.720Z,86.53
2023-03-12T07:55:56.148Z,85.81
2023-03-12T07:58:24.045Z,86.07
2023-03-12T08:00:53.524Z,85.35
2023-03-12T08:03:21.397Z,86.11
2023-03-12T08:05:57.261Z,85.83
2023-03-12T08:08:27.416Z,85.66
2023-03-12T08:10:56.666Z,87.29
2023-03-12T08:13:24.582Z,84.98
2023-03-12T08:15:53.241Z,88.97
2023-03-12T08:18:21.540Z,86.65
2023-03-12T08:20:51.141Z,86.75
2023-03-12T08:23:19.179Z,85.16
2023-03-12T08:25:49.237Z,85.80
2023-03-12T08:28:19.468Z,87.39
2023-03-12T08:30:48.654Z,85.80
2023-03-12T08:33:16.513Z,84.19
2023-03-12T08:35:44.533Z,85.30
2023-03-12T08:38:13.024Z,86.36
2023-03-12T08:40:40.830Z,85.29
2023-03-12T08:43:08.906Z,86.16
2023-03-12T08:45:38.619Z,84.38
2023-03-12T08:48:07.612Z,86.45
2023-03-12T08:50:35.240Z,86.74
2023-03-12T08:53:02.887Z,86.66
2023-03-12T08:55:30.644Z,85.61
2023-03-12T08:57:59.687Z,85.77
2023-03-12T09:00:27.322Z,85.02
2023-03-12T09:02:58.257Z,80.73
2023-03-12T09:05:28.066Z,81.03
2023-03-12T09:07:55.727Z,80.11
2023-03-12T09:10:23.493Z,78.61
2023-03-12T09:12:51.110Z,80.60
2023-03-12T09:15:18.977Z,80.50
2023-03-12T09:17:47.900Z,79.63
2023-03-12T09:20:16.941Z,78.78
2023-03-12T09:22:44.601Z,77.24
2023-03-12T09:25:13.142Z,78.72
2023-03-12T09:27:42.488Z,78.13
2023-03-12T09:30:12.882Z,77.49
2023-03-12T09:32:40.584Z,80.64
2023-03-12T09:35:09.932Z,78.75
2023-03-12T09:37:39.114Z,78.98
2023-03-12T09:40:08.656Z,77.71
2023-03-12T09:42:42.370Z,78.72
2023-03-12T09:45:17.571Z,77.48
2023-03-12T09:47:50.137Z,76.38
2023-03-12T09:50:26.681Z,76.13
2023-03-12T09:53:00.352Z,77.44
2023-03-12T09:55:32.321Z,78.10
2023-03-12T09:58:00.081Z,76.89
2023-03-12T10:00:31.127Z,76.81
2023-03-12T10:03:23.957Z,75.09
2023-03-12T10:06:04.056Z,75.74
2023-03-12T10:08:45.096Z,74.84
2023-03-12T10:11:24.057Z,74.82
2023-03-12T10:14:06.068Z,75.83
2023-03-12T10:16:53.756Z,72.31
2023-03-12T10:19:38.028Z,72.55
2023-03-12T10:22:15.308Z,70.95
2023-03-12T10:24:57.505Z,72.29
2023-03-12T10:27:29.440Z,74.01
2023-03-12T10:29:58.560Z,73.08
2023-03-12T10:32:32.139Z,72.67
2023-03-12T10:35:03.258Z,74.16
2023-03-12T10:37:38.297Z,74.97
2023-03-12T10:40:13.458Z,73.81
2023-03-12T10:42:41.143Z,76.58
2023-03-12T10:45:22.000Z,76.50
2023-03-12T10:47:52.949Z,73.25
2023-03-12T10:50:23.464Z,75.91
2023-03-12T10:52:54.576Z,78.71
2023-03-12T10:55:27.322Z,79.84
2023-03-12T10:57:55.379Z,83.33
2023-03-12T11:00:26.180Z,85.86
2023-03-12T11:03:00.363Z,87.81
2023-03-12T11:05:31.092Z,90.42
2023-03-12T11:08:01.862Z,92.40
2023-03-12T11:10:43.882Z,94.46
2023-03-12T11:13:24.891Z,95.26
2023-03-12T11:15:53.885Z,96.35
2023-03-12T11:18:25.397Z,98.35
2023-03-12T11:20:56.443Z,100.00
2023-03-12T11:23:27.599Z,100.00
2023-03-12T11:25:59.297Z,100.00
2023-03-12T11:28:36.447Z,100.00
2023-03-12T11:31:07.618Z,100.00
2023-03-12T11:33:35.452Z,100.00
2023-03-12T11:36:25.112Z,100.00
2023-03-12T11:39:04.275Z,100.00
2023-03-12T11:41:49.400Z,100.00
2023-03-12T11:44:26.196Z,100.00
2023-03-12T11:47:07.672Z,100.00
2023-03-12T11:49:55.178Z,100.00
2023-03-12T11:52:33.378Z,100.00
2023-03-12T11:55:16.406Z,100.00
2023-03-12T11:57:58.813Z,100.00
2023-03-12T12:00:32.244Z,100.00
2023-03-12T12:03:24.940Z,100.00
2023-03-12T12:06:00.519Z,100.00
2023-03-12T12:08:38.970Z,100.00
2023-03-12T12:11:15.588Z,100.00
2023-03-12T12:13:58.531Z,100.00
2023-03-12T12:16:52.354Z,100.00
2023-03-12T12:19:29.211Z,100.00
2023-03-12T12:22:14.995Z,100.00
2023-03-12T12:25:02.325Z,100.00
2023-03-12T12:27:39.921Z,100.00
2023-03-12T12:30:20.637Z,100.00
2023-03-12T12:33:06.257Z,100.00
2023-03-12T12:35:37.994Z,100.00
2023-03-12T12:38:14.203Z,100.00
2023-03-12T12:40:45.322Z,100.00
2023-03-12T12:43:27.910Z,100.00
2023-03-12T12:46:04.198Z,100.00
2023-03-12T12:48:36.313Z,100.00
2023-03-12T12:51:08.774Z,100.00
2023-03-12T12:53:44.870Z,100.00
2023-03-12T12:56:20.608Z,100.00
2023-03-12T12:59:04.994Z,100.00
2023-03-12T13:01:36.514Z,100.00
2023-03-12T13:04:12.220Z,100.00
2023-03-12T13:06:57.978Z,100.00
2023-03-12T13:09:38.406Z,100.00
2023-03-12T13:12:15.628Z,100.00
2023-03-12T13:14:44.672Z,100.00
2023-03-12T13:17:28.913Z,100.00
2023-03-12T13:20:10.798Z,100.00
2023-03-12T13:22:54.560Z,100.00
2023-03-12T13:25:31.401Z,100.00
2023-03-12T13:28:18.018Z,100.00
2023-03-12T13:30:51.339Z,100.00
2023-03-12T13:33:37.000Z,100.00
2023-03-12T13:36:11.302Z,100.00
2023-03-12T13:38:52.882Z,100.00
2023-03-12T13:41:32.447Z,100.00
2023-03-12T13:44:00.563Z,100.00
2023-03-12T13:46:41.147Z,100.00
2023-03-12T13:49:17.065Z,100.00
2023-03-12T13:51:48.063Z,100.00
2023-03-12T13:54:19.966Z,100.00
2023-03-12T13:56:57.855Z,100.00
2023-03-12T13:59:28.110Z,100.00
2023-03-12T14:02:00.492Z,100.00
2023-03-12T14:04:35.972Z,100.00
2023-03-12T14:07:29.919Z,100.00
2023-03-12T14:10:08.960Z,100.00
2023-03-12T14:12:45.019Z,100.00
2023-03-12T14:15:25.881Z,100.00
2023-03-12T14:17:58.005Z,100.00
2023-03-12T14:20:30.705Z,100.00
2023-03-12T14:23:01.841Z,100.00
2023-03-12T14:25:38.829Z,100.00
2023-03-12T14:28:14.513Z,100.00
2023-03-12T14:30:48.456Z,100.00
2023-03-12T14:33:17.571Z,100.00
2023-03-12T14:35:52.171Z,100.00
2023-03-12T14:38:26.272Z,100.00
2023-03-12T14:40:58.782Z,100.00
2023-03-12T14:43:29.377Z,100.00
2023-03-12T14:45:58.592Z,100.00
2023-03-12T14:48:30.757Z,100.00
2023-03-12T14:51:04.189Z,100.00
2023-03-12T14:53:35.746Z,100.00
2023-03-12T14:56:07.453Z,100.00
2023-03-12T14:58:36.670Z,100.00
2023-03-12T15:01:08.383Z,100.00
2023-03-12T15:03:43.531Z,100.00
2023-03-12T15:06:18.730Z,100.00
2023-03-12T15:08:46.730Z,100.00
2023-03-12T15:11:15.409Z,100.00
2023-03-12T15:13:47.247Z,100.00
2023-03-12T15:16:15.151Z,100.00
2023-03-12T15:18:43.757Z,100.00
2023-03-12T15:21:11.721Z,100.00
2023-03-12T15:23:45.530Z,100.00
2023-03-12T15:26:16.705Z,100.00
2023-03-12T15:28:45.119Z,100.00
2023-03-12T15:31:15.689Z,100.00
2023-03-12T15:33:44.585Z,100.00
2023-03-12T15:36:26.941Z,100.00
2023-03-12T15:39:00.317Z,100.00
2023-03-12T15:41:30.796Z,100.00
2023-03-12T15:44:00.768Z,100.00
2023-03-12T15:46:29.673Z,100.00
2023-03-12T15:49:00.104Z,100.00
2023-03-12T15:51:31.695Z,100.00
2023-03-12T15:54:07.494Z,100.00
2023-03-12T15:56:36.807Z,100.00
2023-03-12T15:59:20.833Z,100.00
2023-03-12T16:01:49.833Z,100.00
2023-03-12T16:04:19.407Z,100.00
2023-03-12T16:06:48.827Z,100.00
2023-03-12T16:09:20.859Z,100.00
2023-03-12T16:11:49.386Z,100.00
2023-03-12T16:14:21.125Z,100.00
2023-03-12T16:16:49.036Z,100.00
2023-03-12T16:19:19.137Z,100.00
2023-03-12T16:21:46.931Z,100.00
2023-03-12T16:24:16.448Z,100.00
2023-03-12T16:26:50.098Z,100.00
2023-03-12T16:29:19.533Z,100.00
2023-03-12T16:31:52.467Z,100.00
2023-03-12T16:34:20.214Z,100.00
2023-03-12T16:36:48.050Z,100.00
2023-03-12T16:39:17.750Z,100.00
2023-03-12T16:41:48.234Z,100.00
2023-03-12T16:44:20.823Z,100.00
2023-03-12T16:46:48.637Z,100.00
2023-03-12T16:49:20.798Z,100.00
2023-03-12T16:51:48.993Z,100.00
2023-03-12T16:54:16.678Z,100.00
2023-03-12T16:56:47.820Z,100.00
2023-03-12T16:59:24.655Z,100.00
2023-03-12T17:01:52.503Z,100.00
2023-03-12T17:04:20.469Z,100.00
2023-03-12T17:06:48.212Z,100.00
2023-03-12T17:09:15.800Z,100.00
2023-03-12T17:11:43.632Z,100.00
2023-03-12T17:14:19.660Z,100.00
2023-03-12T17:16:47.271Z,100.00
2023-03-12T17:19:15.132Z,100.00
2023-03-12T17:21:44.010Z,100.00
2023-03-12T17:24:13.875Z,100.00
2023-03-12T17:26:41.642Z,100.00
2023-03-12T17:29:09.272Z,100.00
2023-03-12T17:31:38.391Z,100.00
2023-03-12T17:34:06.404Z,100.00
2023-03-12T17:36:37.014Z,100.00
2023-03-12T17:39:04.753Z,100.00
2023-03-12T17:41:32.961Z,100.00
2023-03-12T17:44:02.102Z,100.00
2023-03-12T17:46:30.558Z,100.00
2023-03-12T17:49:00.296Z,100.00
2023-03-12T17:51:27.942Z,100.00
2023-03-12T17:53:55.650Z,100.00
2023-03-12T17:56:23.359Z,100.00
2023-03-12T17:58:51.045Z,100.00
2023-03-12T18:01:18.752Z,100.00
2023-03-12T18:03:46.593Z,100.00
2023-03-12T18:06:15.812Z,100.00
2023-03-12T18:08:46.186Z,100.00
2023-03-12T18:11:13.921Z,100.00
2023-03-12T18:13:41.570Z,100.00
2023-03-12T18:16:10.449Z,100.00
2023-03-12T18:18:38.138Z,100.00
2023-03-12T18:21:06.295Z,100.00
2023-03-12T18:23:35.335Z,100.00
2023-03-12T18:26:03.618Z,100.00
2023-03-12T18:28:31.420Z,100.00
2023-03-12T18:30:59.625Z,100.00
2023-03-12T18:33:27.379Z,100.00
2023-03-12T18:35:56.324Z,100.00
2023-03-12T18:38:24.018Z,100.00
2023-03-12T18:40:53.722Z,100.00
2023-03-12T18:43:22.064Z,100.00
2023-03-12T18:45:50.827Z,100.00
2023-03-12T18:48:18.636Z,100.00
2023-03-12T18:50:46.291Z,100.00
2023-03-12T18:53:14.049Z,100.00
2023-03-12T18:55:42.093Z,100.00
2023-03-12T18:58:11.166Z,100.00
2023-03-12T19:00:39.052Z,100.00
2023-03-12T19:03:06.827Z,100.00
2023-03-12T19:05:35.061Z,100.00
2023-03-12T19:08:02.987Z,100.00
2023-03-12T19:10:30.743Z,100.00
2023-03-12T19:12:59.121Z,100.00
2023-03-12T19:15:28.765Z,100.00
2023-03-12T19:17:57.047Z,100.00
2023-03-12T19:20:25.010Z,100.00
2023-03-12T19:22:52.595Z,100.00
2023-03-12T19:25:20.596Z,100.00
2023-03-12T19:27:48.508Z,100.00
2023-03-12T19:30:16.702Z,100.00
2023-03-12T19:32:46.003Z,100.00
2023-03-12T19:35:15.181Z,100.00
2023-03-12T19:37:42.897Z,100.00
2023-03-12T19:40:13.527Z,100.00
2023-03-12T19:42:41.578Z,100.00
2023-03-12T19:45:10.834Z,100.00
2023-03-12T19:47:38.529Z,100.00
2023-03-12T19:50:09.058Z,100.00
2023-03-12T19:52:36.851Z,100.00
2023-03-12T19:55:05.792Z,100.00
2023-03-12T19:57:35.320Z,100.00
2023-03-12T20:00:07.313Z,100.00
2023-03-12T20:02:35.275Z,100.00
2023-03-12T20:05:04.230Z,100.00
2023-03-12T20:07:33.561Z,100.00
2023-03-12T20:10:01.326Z,100.00
2023-03-12T20:12:29.116Z,100.00
2023-03-12T20:14:56.816Z,100.00
2023-03-12T20:17:24.673Z,100.00
2023-03-12T20:19:52.268Z,100.00
2023-03-12T20:22:20.105Z,100.00
2023-03-12T20:24:49.095Z,100.00
2023-03-12T20:27:17.854Z,100.00
2023-03-12T20:29:46.044Z,100.00
2023-03-12T20:32:14.073Z,100.00
2023-03-12T20:34:41.881Z,100.00
2023-03-12T20:37:09.548Z,100.00
2023-03-12T20:39:37.437Z,100.00
2023-03-12T20:42:06.713Z,100.00
2023-03-12T20:44:34.441Z,100.00
2023-03-12T20:47:02.429Z,100.00
2023-03-12T20:49:30.144Z,100.00
2023-03-12T20:51:58.604Z,100.00
2023-03-12T20:54:28.030Z,100.00
2023-03-12T20:56:55.762Z,100.00
2023-03-12T20:59:24.778Z,100.00
2023-03-12T21:01:52.371Z,100.00
2023-03-12T21:04:20.253Z,100.00
2023-03-12T21:06:51.494Z,100.00
2023-03-12T21:09:19.687Z,100.00
2023-03-12T21:11:47.543Z,100.00
2023-03-12T21:14:15.178Z,100.00
2023-03-12T21:16:44.173Z,100.00
2023-03-12T21:19:11.930Z,100.00
2023-03-12T21:21:39.722Z,100.00
2023-03-12T21:24:08.460Z,100.00
2023-03-12T21:26:36.430Z,100.00
2023-03-12T21:29:04.874Z,100.00
2023-03-12T21:31:32.576Z,100.00
2023-03-12T21:34:02.436Z,100.00
2023-03-12T21:36:30.316Z,100.00
2023-03-12T21:38:58.148Z,100.00
2023-03-12T21:41:25.850Z,100.00
2023-03-12T21:43:53.648Z,100.00
2023-03-12T21:46:24.533Z,100.00
2023-03-12T21:48:53.814Z,100.00
2023-03-12T21:51:26.049Z,100.00
2023-03-12T21:53:55.272Z,100.00
2023-03-12T21:56:25.263Z,100.00
2023-03-12T21:58:53.515Z,100.00
2023-03-12T22:01:21.564Z,100.00
2023-03-12T22:03:49.315Z,100.00
2023-03-12T22:06:17.082Z,100.00
2023-03-12T22:08:48.000Z,100.00
2023-03-12T22:11:16.584Z,100.00
2023-03-12T22:13:44.496Z,100.00
2023-03-12T22:16:14.089Z,100.00
2023-03-12T22:18:44.021Z,100.00
2023-03-12T22:21:16.154Z,100.00
2023-03-12T22:23:43.889Z,100.00
2023-03-12T22:26:12.978Z,100.00
2023-03-12T22:28:40.941Z,100.00
2023-03-12T22:31:09.645Z,100.00
2023-03-12T22:33:37.685Z,100.00
2023-03-12T22:36:07.830Z,100.00
2023-03-12T22:38:36.956Z,100.00
2023-03-12T22:41:18.194Z,100.00
2023-03-12T22:43:46.955Z,100.00
2023-03-12T22:46:16.857Z,100.00
2023-03-12T22:48:44.840Z,100.00
2023-03-12T22:51:13.937Z,100.00
2023-03-12T22:53:41.655Z,100.00
2023-03-12T22:56:11.314Z,100.00
2023-03-12T22:58:43.447Z,100.00
2023-03-12T23:01:12.540Z,100.00
2023-03-12T23:03:41.827Z,100.00
2023-03-12T23:06:10.337Z,100.00
2023-03-12T23:08:38.769Z,100.00
2023-03-12T23:11:07.641Z,100.00
2023-03-12T23:13:37.425Z,100.00
2023-03-12T23:16:11.549Z,100.00
2023-03-12T23:18:39.601Z,100.00
2023-03-12T23:21:09.244Z,100.00
2023-03-12T23:23:39.320Z,100.00
2023-03-12T23:26:09.193Z,100.00
2023-03-12T23:28:36.861Z,100.00
2023-03-12T23:31:07.691Z,100.00
2023-03-12T23:33:37.503Z,100.00
2023-03-12T23:36:08.045Z,100.00
2023-03-12T23:38:37.659Z,100.00
2023-03-12T23:41:07.795Z,100.00
2023-03-12T23:43:36.793Z,100.00
2023-03-12T23:46:06.476Z,100.00
2023-03-12T23:48:35.770Z,100.00
2023-03-12T23:51:12.371Z,100.00
2023-03-12T23:53:42.081Z,100.00
2023-03-12T23:56:12.159Z,100.00
2023-03-12T23:58:39.963Z,100.00
